Time;durP1;ratioP1;P1;durP2;ratioP2;P2;SDS_P1;SDS_P2;PMS_P1;PMS_P2;Temp;Humidity;BMP_temperature;BMP_pressure;BME280_temperature;BME280_humidity;BME280_pressure;Samples;Min_cycle;Max_cycle;Signal;HPM_P1;HPM_P2
2022/03/14 00:00:35;;;;;;;2.47;1.00;;;24.10;99.90;;;;;;5098715;27;20202;-76
2022/03/14 00:03:06;;;;;;;3.55;1.08;;;24.00;99.90;;;;;;5097298;27;20199;-75
2022/03/14 00:05:39;;;;;;;4.80;1.00;;;23.80;99.90;;;;;;5099438;27;20194;-72
2022/03/14 00:08:09;;;;;;;4.35;1.10;;;23.80;99.90;;;;;;5097682;27;20205;-72
2022/03/14 00:10:41;;;;;;;3.00;1.00;;;23.70;99.90;;;;;;5100192;27;20210;-73
2022/03/14 00:13:16;;;;;;;4.65;1.27;;;23.70;99.90;;;;;;5101253;27;20198;-74
2022/03/14 00:15:47;;;;;;;2.00;0.70;;;23.70;99.90;;;;;;5098133;27;20198;-75
2022/03/14 00:18:19;;;;;;;3.38;0.90;;;23.60;99.90;;;;;;5096478;27;20246;-75
2022/03/14 00:20:52;;;;;;;3.10;1.00;;;23.60;99.90;;;;;;5097372;27;20281;-76
2022/03/14 00:23:22;;;;;;;3.13;1.25;;;23.50;99.90;;;;;;5097177;27;20202;-76
2022/03/14 00:25:53;;;;;;;4.28;1.10;;;23.50;99.90;;;;;;5101170;27;20225;-76
2022/03/14 00:28:24;;;;;;;3.10;0.80;;;23.50;99.90;;;;;;5096949;28;20206;-75
2022/03/14 00:30:54;;;;;;;3.63;0.93;;;23.40;99.90;;;;;;5102742;27;20197;-75
2022/03/14 00:33:25;;;;;;;2.05;0.80;;;23.50;99.90;;;;;;5100487;27;20197;-76
2022/03/14 00:35:57;;;;;;;3.03;0.73;;;23.50;99.90;;;;;;5097878;27;20206;-76
2022/03/14 00:38:28;;;;;;;3.35;0.90;;;23.50;99.90;;;;;;5103796;28;20217;-75
2022/03/14 00:40:59;;;;;;;3.22;0.88;;;23.50;99.90;;;;;;5097754;28;20281;-75
2022/03/14 00:43:30;;;;;;;3.42;0.68;;;23.50;99.90;;;;;;5097056;28;20240;-76
2022/03/14 00:46:00;;;;;;;1.70;0.60;;;23.40;99.90;;;;;;5096504;28;20209;-76
2022/03/14 00:48:32;;;;;;;4.22;0.90;;;23.50;99.90;;;;;;5096483;28;20226;-76
2022/03/14 00:51:05;;;;;;;3.60;0.90;;;23.40;99.90;;;;;;5103451;28;20234;-77
2022/03/14 00:53:37;;;;;;;2.33;0.90;;;23.40;99.90;;;;;;5100175;28;20645;-76
2022/03/14 00:56:08;;;;;;;2.28;0.60;;;23.50;99.90;;;;;;5100879;28;20226;-76
2022/03/14 00:58:39;;;;;;;1.67;0.70;;;23.40;99.90;;;;;;5096526;28;20684;-76
2022/03/14 01:01:10;;;;;;;2.35;0.80;;;23.40;99.90;;;;;;5097891;28;20217;-76
2022/03/14 01:03:41;;;;;;;1.98;0.60;;;23.30;99.90;;;;;;5098616;28;20368;-76
2022/03/14 01:06:13;;;;;;;3.67;0.88;;;23.30;99.90;;;;;;5096744;28;20669;-76
2022/03/14 01:08:44;;;;;;;2.28;0.75;;;23.40;99.90;;;;;;5097163;28;20272;-76
2022/03/14 01:11:18;;;;;;;1.60;0.47;;;23.50;99.90;;;;;;5100513;28;20694;-76
2022/03/14 01:13:48;;;;;;;2.95;0.60;;;23.50;99.90;;;;;;5100747;28;20688;-75
2022/03/14 01:16:19;;;;;;;2.00;0.50;;;23.60;99.90;;;;;;5098428;28;20194;-75
2022/03/14 01:18:50;;;;;;;3.63;0.80;;;23.50;99.90;;;;;;5096419;28;20226;-75
2022/03/14 01:21:24;;;;;;;3.65;0.70;;;23.50;99.90;;;;;;5098410;28;20197;-76
2022/03/14 01:23:55;;;;;;;2.85;0.70;;;23.60;99.90;;;;;;5100108;28;20224;-76
2022/03/14 01:26:26;;;;;;;1.73;0.60;;;23.50;99.90;;;;;;5103015;27;20327;-76
2022/03/14 01:28:57;;;;;;;1.90;0.50;;;23.50;99.90;;;;;;5100507;27;20286;-74
2022/03/14 01:31:27;;;;;;;2.45;0.60;;;23.50;99.90;;;;;;5101270;27;20195;-76
2022/03/14 01:33:58;;;;;;;1.33;0.60;;;23.50;99.90;;;;;;5100552;27;20746;-77
2022/03/14 01:36:31;;;;;;;2.70;0.70;;;23.50;99.90;;;;;;5102573;27;20289;-76
2022/03/14 01:39:02;;;;;;;3.42;0.88;;;23.40;99.90;;;;;;5100172;27;20731;-74
2022/03/14 01:41:32;;;;;;;2.15;0.50;;;23.40;99.90;;;;;;5105208;27;20281;-74
2022/03/14 01:44:03;;;;;;;3.10;0.60;;;23.40;99.90;;;;;;5102372;27;20194;-76
2022/03/14 01:46:34;;;;;;;1.95;0.47;;;23.40;99.90;;;;;;5100494;27;20198;-76
2022/03/14 01:49:05;;;;;;;0.60;0.30;;;23.30;99.90;;;;;;5101524;27;20202;-76
2022/03/14 01:51:40;;;;;;;2.00;0.60;;;23.30;99.90;;;;;;5104543;27;20202;-76
2022/03/14 01:54:12;;;;;;;1.08;0.45;;;23.30;99.90;;;;;;5122225;27;20208;-76
2022/03/14 01:56:44;;;;;;;2.92;0.80;;;23.30;99.90;;;;;;5099562;27;20197;-76
2022/03/14 01:59:15;;;;;;;2.47;1.00;;;23.30;99.90;;;;;;5100613;27;20226;-76
2022/03/14 02:01:46;;;;;;;3.15;0.90;;;23.30;99.90;;;;;;5100138;27;20692;-75
2022/03/14 02:04:18;;;;;;;2.58;0.73;;;23.30;99.90;;;;;;5100723;27;20194;-75
2022/03/14 02:06:50;;;;;;;0.93;0.60;;;23.20;99.90;;;;;;5102792;27;20286;-75
2022/03/14 02:09:21;;;;;;;2.33;0.77;;;23.20;99.90;;;;;;5100119;27;20211;-75
2022/03/14 02:12:09;;;;;;;1.95;0.65;;;23.20;99.90;;;;;;5103054;27;20654;-74
2022/03/14 02:14:41;;;;;;;1.60;0.60;;;23.10;99.90;;;;;;5100179;27;20206;-75
2022/03/14 02:17:16;;;;;;;3.00;0.70;;;23.10;99.90;;;;;;5101435;27;20281;-72
2022/03/14 02:19:47;;;;;;;2.92;0.70;;;23.00;99.90;;;;;;5101909;27;20723;-75
2022/03/14 02:22:20;;;;;;;1.52;0.60;;;23.00;99.90;;;;;;5106419;27;21765;-75
2022/03/14 02:24:51;;;;;;;1.85;0.68;;;23.10;99.90;;;;;;5104794;27;20214;-75
2022/03/14 02:27:21;;;;;;;2.75;0.77;;;23.10;99.90;;;;;;5099212;27;20234;-76
2022/03/14 02:29:52;;;;;;;1.30;0.68;;;23.10;99.90;;;;;;5100832;27;20205;-75
2022/03/14 02:32:23;;;;;;;2.03;0.65;;;23.10;99.90;;;;;;5132228;27;20505;-75
2022/03/14 02:34:53;;;;;;;0.80;0.40;;;23.10;99.90;;;;;;5131622;27;20201;-77
2022/03/14 02:37:26;;;;;;;2.20;0.63;;;23.10;99.90;;;;;;5133546;27;20193;-77
2022/03/14 02:39:56;;;;;;;3.35;0.60;;;23.10;99.90;;;;;;5115128;27;20286;-76
2022/03/14 02:42:27;;;;;;;3.17;0.70;;;23.10;99.90;;;;;;5126207;27;20202;-77
2022/03/14 02:44:58;;;;;;;3.75;0.63;;;23.00;99.90;;;;;;5112508;27;20607;-76
2022/03/14 02:47:28;;;;;;;3.45;0.95;;;23.00;99.90;;;;;;5129454;27;20198;-76
2022/03/14 02:49:59;;;;;;;2.25;0.93;;;22.90;99.90;;;;;;5119529;27;20206;-74
2022/03/14 02:52:31;;;;;;;1.58;0.70;;;22.80;99.90;;;;;;5114687;27;20202;-75
2022/03/14 02:55:02;;;;;;;1.75;0.50;;;22.80;99.90;;;;;;5119054;27;20186;-74
2022/03/14 02:57:33;;;;;;;3.10;0.70;;;22.80;99.90;;;;;;5113504;28;20218;-74
2022/03/14 03:00:05;;;;;;;2.97;0.60;;;22.70;99.90;;;;;;5118438;27;20273;-74
2022/03/14 03:02:37;;;;;;;1.95;0.60;;;22.60;99.90;;;;;;5118611;27;20722;-74
2022/03/14 03:05:08;;;;;;;1.73;0.70;;;22.50;99.90;;;;;;5133203;27;20194;-75
2022/03/14 03:07:40;;;;;;;2.40;0.82;;;22.50;99.90;;;;;;5114450;27;20202;-74
2022/03/14 03:10:12;;;;;;;2.55;0.75;;;22.10;99.90;;;;;;5127693;27;20225;-74
2022/03/14 03:12:43;;;;;;;2.38;0.70;;;22.00;99.90;;;;;;5111881;27;20210;-74
2022/03/14 03:15:15;;;;;;;2.35;0.60;;;21.90;99.90;;;;;;5124225;27;20194;-73
2022/03/14 03:17:46;;;;;;;2.13;0.80;;;21.80;99.90;;;;;;5113809;27;20199;-74
2022/03/14 03:20:16;;;;;;;4.28;0.80;;;21.70;99.90;;;;;;5112051;28;20194;-74
2022/03/14 03:22:49;;;;;;;2.00;0.68;;;21.60;99.90;;;;;;5121135;27;20557;-74
2022/03/14 03:25:20;;;;;;;2.78;0.68;;;21.60;99.90;;;;;;5121301;27;20301;-74
2022/03/14 03:27:50;;;;;;;1.77;0.65;;;21.50;99.90;;;;;;5126996;27;20230;-74
2022/03/14 03:30:21;;;;;;;3.72;0.90;;;21.60;99.90;;;;;;5132301;27;20235;-75
2022/03/14 03:32:52;;;;;;;3.40;0.80;;;21.60;99.90;;;;;;5112296;27;20226;-75
2022/03/14 03:35:22;;;;;;;3.35;1.17;;;21.60;99.90;;;;;;5123444;27;20198;-74
2022/03/14 03:37:55;;;;;;;3.97;1.20;;;21.60;99.90;;;;;;5111739;27;20661;-75
2022/03/14 03:40:25;;;;;;;1.70;0.80;;;21.60;99.90;;;;;;5127126;27;20660;-74
2022/03/14 03:42:56;;;;;;;3.60;1.10;;;21.70;99.90;;;;;;5112919;27;20198;-74
2022/03/14 03:45:27;;;;;;;2.97;1.10;;;21.70;99.90;;;;;;5110853;28;20191;-74
2022/03/14 03:47:57;;;;;;;2.50;0.98;;;21.80;99.90;;;;;;5111168;28;20202;-74
2022/03/14 03:50:28;;;;;;;2.58;1.00;;;21.80;99.90;;;;;;5126872;27;20197;-72
2022/03/14 03:53:01;;;;;;;3.70;1.23;;;21.80;99.90;;;;;;5125416;27;20195;-74
2022/03/14 03:55:31;;;;;;;3.20;1.13;;;21.80;99.90;;;;;;5112536;27;20198;-73
2022/03/14 03:58:02;;;;;;;2.47;0.90;;;21.80;99.90;;;;;;5110458;27;20541;-74
2022/03/14 04:00:33;;;;;;;3.30;1.00;;;21.80;99.90;;;;;;5123142;27;20533;-74
2022/03/14 04:03:04;;;;;;;2.28;1.00;;;21.90;99.90;;;;;;5115710;27;20186;-74
2022/03/14 04:05:39;;;;;;;2.35;0.90;;;21.90;99.90;;;;;;5133546;27;20219;-72
2022/03/14 04:08:13;;;;;;;2.28;0.82;;;21.90;99.90;;;;;;5125129;27;20186;-74
2022/03/14 04:10:43;;;;;;;3.42;0.90;;;21.90;99.90;;;;;;5130677;27;20193;-73
2022/03/14 04:13:14;;;;;;;4.00;1.02;;;22.00;99.90;;;;;;5111377;27;20209;-73
2022/03/14 04:15:51;;;;;;;3.17;0.95;;;22.00;99.90;;;;;;5114698;27;20661;-73
2022/03/14 04:18:23;;;;;;;2.63;1.00;;;22.10;99.90;;;;;;5120016;27;20255;-75
2022/03/14 04:20:54;;;;;;;2.88;1.10;;;22.30;99.90;;;;;;5129970;27;20198;-74
2022/03/14 04:23:26;;;;;;;2.92;1.00;;;22.40;99.90;;;;;;5124710;27;20277;-74
2022/03/14 04:25:57;;;;;;;2.88;1.10;;;22.50;99.90;;;;;;5110449;28;20261;-74
2022/03/14 04:28:28;;;;;;;3.15;1.17;;;22.60;99.90;;;;;;5111608;27;20202;-73
2022/03/14 04:30:59;;;;;;;4.05;1.35;;;22.70;99.90;;;;;;5131293;27;20284;-74
2022/03/14 04:33:29;;;;;;;2.63;0.90;;;22.80;99.90;;;;;;5130270;27;20285;-73
2022/03/14 04:36:00;;;;;;;2.95;1.00;;;22.80;99.90;;;;;;5122125;27;20194;-75
2022/03/14 04:38:33;;;;;;;4.03;1.10;;;22.90;99.90;;;;;;5110652;28;20222;-73
2022/03/14 04:41:03;;;;;;;2.58;0.93;;;23.00;99.90;;;;;;5111576;28;20198;-74
2022/03/14 04:43:34;;;;;;;1.58;0.70;;;23.10;99.90;;;;;;5110362;28;20706;-74
2022/03/14 04:46:05;;;;;;;5.60;1.27;;;23.20;99.90;;;;;;5112103;28;20190;-74
2022/03/14 04:48:35;;;;;;;4.28;1.20;;;23.30;99.90;;;;;;5110122;28;20657;-74
2022/03/14 04:51:06;;;;;;;6.13;1.33;;;23.40;99.90;;;;;;5111279;28;20198;-76
2022/03/14 04:53:39;;;;;;;4.13;1.17;;;23.40;99.90;;;;;;5117346;28;20202;-74
2022/03/14 04:56:09;;;;;;;5.22;1.13;;;23.50;99.90;;;;;;5110750;28;20205;-74
2022/03/14 04:58:40;;;;;;;4.32;1.00;;;23.60;99.90;;;;;;5110816;28;20279;-75
2022/03/14 05:01:10;;;;;;;4.30;1.20;;;23.70;99.90;;;;;;5113242;28;20195;-74
2022/03/14 05:03:41;;;;;;;6.05;1.50;;;23.80;99.90;;;;;;5114677;28;20239;-75
2022/03/14 05:06:12;;;;;;;3.75;1.20;;;23.90;99.90;;;;;;5114062;28;20612;-73
2022/03/14 05:08:44;;;;;;;5.28;1.45;;;24.00;99.90;;;;;;5135131;27;20251;-74
2022/03/14 05:11:15;;;;;;;4.18;1.27;;;24.10;99.90;;;;;;5127518;27;20202;-73
2022/03/14 05:13:46;;;;;;;4.53;1.20;;;24.20;99.90;;;;;;5117721;27;20240;-74
2022/03/14 05:16:17;;;;;;;3.75;1.20;;;24.20;99.90;;;;;;5118225;28;20292;-74
2022/03/14 05:18:47;;;;;;;2.92;0.90;;;24.30;99.90;;;;;;5127099;27;20218;-74
2022/03/14 05:21:18;;;;;;;4.90;1.00;;;24.40;99.90;;;;;;5114842;28;20194;-74
2022/03/14 05:23:50;;;;;;;2.45;0.77;;;24.30;99.90;;;;;;5129716;27;20186;-74
2022/03/14 05:26:21;;;;;;;4.30;1.00;;;24.30;99.90;;;;;;5134556;27;20225;-74
2022/03/14 05:28:52;;;;;;;4.30;1.13;;;24.30;99.90;;;;;;5142802;27;20198;-76
2022/03/14 05:31:22;;;;;;;3.05;1.00;;;24.40;99.90;;;;;;5135394;27;20201;-75
2022/03/14 05:34:00;;;;;;;3.45;0.90;;;24.50;99.90;;;;;;5146929;27;20198;-75
2022/03/14 05:36:30;;;;;;;4.68;0.95;;;24.70;99.90;;;;;;5139160;27;20593;-74
2022/03/14 05:39:02;;;;;;;2.83;0.85;;;25.00;99.90;;;;;;5127450;27;20223;-74
2022/03/14 05:41:33;;;;;;;5.13;1.02;;;25.20;99.90;;;;;;5123465;27;20603;-75
2022/03/14 05:44:04;;;;;;;5.53;1.08;;;25.30;99.90;;;;;;5114988;28;20198;-74
2022/03/14 05:46:35;;;;;;;2.90;0.93;;;25.40;99.90;;;;;;5113946;28;20216;-75
2022/03/14 05:49:06;;;;;;;3.35;1.02;;;25.30;99.90;;;;;;5114105;27;20191;-75
2022/03/14 05:51:37;;;;;;;3.83;0.70;;;25.10;99.90;;;;;;5114371;28;20242;-75
2022/03/14 05:54:10;;;;;;;2.88;0.85;;;25.00;99.90;;;;;;5113669;28;20201;-75
2022/03/14 05:56:43;;;;;;;2.53;0.80;;;25.00;99.90;;;;;;5114465;27;20204;-75
2022/03/14 05:59:14;;;;;;;3.38;0.88;;;24.90;99.90;;;;;;5130916;27;20698;-75
2022/03/14 06:01:46;;;;;;;3.30;0.82;;;24.90;99.90;;;;;;5134549;27;20190;-75
2022/03/14 06:04:16;;;;;;;4.78;0.85;;;24.80;99.90;;;;;;5119923;27;20654;-75
2022/03/14 06:06:47;;;;;;;4.28;0.63;;;24.60;99.90;;;;;;5131522;27;20206;-75
2022/03/14 06:09:19;;;;;;;2.28;0.80;;;24.60;99.90;;;;;;5134763;27;20198;-75
2022/03/14 06:11:50;;;;;;;3.25;0.60;;;24.50;99.90;;;;;;5133290;27;20213;-75
2022/03/14 06:14:21;;;;;;;2.42;0.77;;;24.30;99.90;;;;;;5129223;27;20250;-76
2022/03/14 06:16:51;;;;;;;3.72;1.00;;;24.30;99.90;;;;;;5113909;28;20199;-76
2022/03/14 06:19:22;;;;;;;3.65;0.88;;;24.20;99.90;;;;;;5113964;28;20227;-76
2022/03/14 06:22:10;;;;;;;3.40;0.60;;;24.10;99.90;;;;;;5125161;27;20209;-75
2022/03/14 06:24:47;;;;;;;2.45;0.82;;;24.10;99.90;;;;;;5124411;27;20215;-75
2022/03/14 06:27:18;;;;;;;3.75;0.82;;;24.10;99.90;;;;;;5113424;28;20577;-75
2022/03/14 06:29:49;;;;;;;3.13;0.73;;;24.10;99.90;;;;;;5112769;28;20194;-75
2022/03/14 06:32:20;;;;;;;2.47;0.80;;;24.10;99.90;;;;;;5121722;27;20198;-74
2022/03/14 06:34:51;;;;;;;3.00;0.80;;;24.00;99.90;;;;;;5128500;27;20186;-74
2022/03/14 06:37:23;;;;;;;4.30;0.90;;;24.00;99.90;;;;;;5124611;27;20199;-73
2022/03/14 06:39:56;;;;;;;2.47;0.70;;;23.90;99.90;;;;;;5113286;27;20234;-75
2022/03/14 06:42:26;;;;;;;3.78;0.80;;;23.90;99.90;;;;;;5128720;27;20190;-74
2022/03/14 06:45:00;;;;;;;3.72;0.93;;;23.90;99.90;;;;;;5114291;27;20201;-76
2022/03/14 06:47:32;;;;;;;3.53;0.80;;;23.90;99.90;;;;;;5112911;28;20673;-75
2022/03/14 06:50:02;;;;;;;4.82;0.93;;;23.90;99.90;;;;;;5113878;27;20649;-74
2022/03/14 06:52:33;;;;;;;4.40;1.08;;;23.90;99.90;;;;;;5112968;28;20206;-74
2022/03/14 06:55:06;;;;;;;5.00;1.10;;;24.00;99.90;;;;;;5112766;28;20190;-74
2022/03/14 06:57:36;;;;;;;4.68;0.90;;;24.10;99.90;;;;;;5112166;27;20198;-74
2022/03/14 07:00:08;;;;;;;3.50;0.80;;;24.00;99.90;;;;;;5130453;27;20224;-74
2022/03/14 07:02:42;;;;;;;3.67;0.93;;;24.00;99.90;;;;;;5133038;27;20202;-74
2022/03/14 07:05:17;;;;;;;3.13;0.82;;;24.10;99.90;;;;;;5133003;27;20201;-75
2022/03/14 07:07:48;;;;;;;4.45;1.00;;;24.30;99.90;;;;;;5113131;28;20198;-74
2022/03/14 07:10:21;;;;;;;3.72;0.68;;;24.70;99.90;;;;;;5113838;28;20666;-75
2022/03/14 07:12:51;;;;;;;6.68;1.08;;;24.90;99.90;;;;;;5113835;27;20686;-76
2022/03/14 07:15:25;;;;;;;4.20;1.15;;;24.90;99.90;;;;;;5127066;27;20217;-75
2022/03/14 07:17:56;;;;;;;4.35;1.00;;;24.80;99.90;;;;;;5132511;27;20285;-75
2022/03/14 07:20:27;;;;;;;6.05;1.17;;;24.80;99.90;;;;;;5132703;27;20222;-75
2022/03/14 07:22:58;;;;;;;3.25;1.48;;;24.90;99.90;;;;;;5113861;27;20676;-74
2022/03/14 07:25:32;;;;;;;2.53;1.10;;;24.90;99.90;;;;;;5111752;28;20275;-74
2022/03/14 07:28:04;;;;;;;3.03;0.80;;;24.90;99.90;;;;;;5111736;28;20229;-73
2022/03/14 07:30:35;;;;;;;3.08;0.90;;;24.70;99.90;;;;;;5112514;27;20239;-74
2022/03/14 07:33:06;;;;;;;2.75;0.93;;;24.60;99.90;;;;;;5118309;27;20186;-74
2022/03/14 07:35:37;;;;;;;6.18;1.10;;;24.50;99.90;;;;;;5117647;27;20194;-74
2022/03/14 07:38:10;;;;;;;3.65;1.00;;;24.50;99.90;;;;;;5111999;28;20657;-74
2022/03/14 07:40:43;;;;;;;5.25;1.20;;;24.40;99.90;;;;;;5112080;28;20222;-74
2022/03/14 07:43:13;;;;;;;5.25;1.23;;;24.30;99.90;;;;;;5111761;28;20190;-73
2022/03/14 07:45:44;;;;;;;3.15;1.10;;;24.20;99.90;;;;;;5125918;27;20194;-74
2022/03/14 07:48:15;;;;;;;4.97;1.38;;;24.10;99.90;;;;;;5119324;27;20247;-76
2022/03/14 07:50:45;;;;;;;3.83;1.05;;;24.00;99.90;;;;;;5125857;27;20196;-73
2022/03/14 07:53:17;;;;;;;4.38;1.13;;;23.90;99.90;;;;;;5112405;28;20195;-73
2022/03/14 07:55:49;;;;;;;7.78;3.55;;;23.80;99.90;;;;;;5115778;27;20658;-72
2022/03/14 07:58:21;;;;;;;7.50;3.67;;;23.70;99.90;;;;;;5130813;27;20214;-74
2022/03/14 08:00:51;;;;;;;9.02;4.10;;;23.60;99.90;;;;;;5131651;27;20229;-73
2022/03/14 08:03:24;;;;;;;8.10;5.10;;;23.60;99.90;;;;;;5131521;27;20206;-73
2022/03/14 08:05:55;;;;;;;7.55;5.70;;;23.50;99.90;;;;;;5114285;27;20205;-73
2022/03/14 08:08:26;;;;;;;7.95;3.67;;;23.40;99.90;;;;;;5120599;27;20590;-73
2022/03/14 08:11:01;;;;;;;8.00;4.57;;;23.40;99.90;;;;;;5131120;27;20560;-73
2022/03/14 08:13:32;;;;;;;9.77;6.90;;;23.30;99.90;;;;;;5130374;27;20193;-73
2022/03/14 08:16:02;;;;;;;10.25;5.88;;;23.30;99.90;;;;;;5114134;27;20203;-73
2022/03/14 08:18:33;;;;;;;9.23;5.50;;;23.20;99.90;;;;;;5111034;28;20198;-73
2022/03/14 08:21:04;;;;;;;10.57;5.80;;;23.10;99.90;;;;;;5122535;27;20229;-73
2022/03/14 08:23:35;;;;;;;8.82;5.30;;;23.10;99.90;;;;;;5111067;28;20198;-74
2022/03/14 08:26:07;;;;;;;13.18;9.20;;;23.10;99.90;;;;;;5129419;27;20759;-74
2022/03/14 08:28:38;;;;;;;13.77;9.35;;;23.00;99.90;;;;;;5129369;27;20712;-72
2022/03/14 08:31:09;;;;;;;22.20;17.95;;;22.90;99.90;;;;;;5118585;27;20198;-74
2022/03/14 08:33:41;;;;;;;23.38;18.80;;;22.90;99.90;;;;;;5120911;27;20202;-73
2022/03/14 08:36:12;;;;;;;22.85;17.98;;;22.90;99.90;;;;;;5111001;28;20198;-73
2022/03/14 08:38:43;;;;;;;20.52;15.70;;;22.80;99.90;;;;;;5110307;28;20198;-72
2022/03/14 08:41:16;;;;;;;11.15;7.53;;;22.80;99.90;;;;;;5111216;28;20268;-72
2022/03/14 08:43:46;;;;;;;7.68;4.25;;;22.80;99.90;;;;;;5114414;28;20272;-73
2022/03/14 08:46:17;;;;;;;4.47;2.35;;;22.80;99.90;;;;;;5131595;28;20202;-73
2022/03/14 08:48:48;;;;;;;3.40;1.88;;;22.80;99.90;;;;;;5113583;28;20252;-73
2022/03/14 08:51:19;;;;;;;4.20;1.80;;;22.80;99.90;;;;;;5110958;28;20190;-73
2022/03/14 08:53:49;;;;;;;2.72;1.30;;;22.70;99.90;;;;;;5111043;28;20198;-73
2022/03/14 08:56:22;;;;;;;4.18;1.00;;;22.70;99.90;;;;;;5117669;28;20285;-73
2022/03/14 08:58:52;;;;;;;3.78;1.35;;;22.70;99.90;;;;;;5110449;28;20575;-73
2022/03/14 09:01:23;;;;;;;2.40;1.10;;;22.60;99.90;;;;;;5110702;28;20700;-71
2022/03/14 09:03:54;;;;;;;2.63;0.98;;;22.60;99.90;;;;;;5110819;28;20203;-73
2022/03/14 09:06:24;;;;;;;3.00;1.20;;;22.60;99.90;;;;;;5110691;28;20203;-73
2022/03/14 09:08:55;;;;;;;4.95;1.02;;;22.60;99.90;;;;;;5110653;28;20244;-72
2022/03/14 09:11:28;;;;;;;4.95;1.08;;;22.60;99.90;;;;;;5110510;28;20202;-73
2022/03/14 09:13:58;;;;;;;2.92;0.93;;;22.60;99.90;;;;;;5110687;28;20194;-74
2022/03/14 09:16:29;;;;;;;2.80;1.20;;;22.60;99.90;;;;;;5120242;28;20194;-73
2022/03/14 09:19:00;;;;;;;4.18;1.10;;;22.60;99.90;;;;;;5110371;28;20206;-74
2022/03/14 09:21:32;;;;;;;4.70;1.27;;;22.60;99.90;;;;;;5117790;28;20270;-74
2022/03/14 09:24:03;;;;;;;4.18;1.25;;;22.60;99.90;;;;;;5110668;28;20191;-74
2022/03/14 09:26:37;;;;;;;2.80;1.15;;;22.50;99.90;;;;;;5127553;28;20226;-74
2022/03/14 09:29:08;;;;;;;5.57;1.45;;;22.50;99.90;;;;;;5111151;28;20653;-73
2022/03/14 09:31:39;;;;;;;2.85;1.10;;;22.50;99.90;;;;;;5121703;28;20250;-74
2022/03/14 09:34:09;;;;;;;3.95;1.13;;;22.50;99.90;;;;;;5118244;28;20210;-73
2022/03/14 09:36:40;;;;;;;4.10;1.33;;;22.50;99.90;;;;;;5119066;28;20194;-74
2022/03/14 09:39:16;;;;;;;4.93;1.30;;;22.50;99.90;;;;;;5127166;28;20566;-73
2022/03/14 09:41:50;;;;;;;4.00;1.33;;;22.50;99.90;;;;;;5118012;28;20229;-73
2022/03/14 09:44:23;;;;;;;5.43;1.42;;;22.50;99.90;;;;;;5126882;28;20675;-73
2022/03/14 09:46:54;;;;;;;4.28;1.20;;;22.50;99.90;;;;;;5112465;28;20289;-73
2022/03/14 09:49:27;;;;;;;4.57;1.20;;;22.50;99.90;;;;;;5113880;28;20206;-73
2022/03/14 09:51:58;;;;;;;3.20;1.20;;;22.50;99.90;;;;;;5114381;28;20206;-71
2022/03/14 09:54:29;;;;;;;3.03;1.00;;;22.50;99.90;;;;;;5114161;28;20205;-73
2022/03/14 09:57:02;;;;;;;2.17;0.90;;;22.50;99.90;;;;;;5114423;27;20195;-74
2022/03/14 09:59:33;;;;;;;5.32;1.10;;;22.40;99.90;;;;;;5114093;28;20199;-74
2022/03/14 10:02:04;;;;;;;4.75;1.10;;;22.40;99.90;;;;;;5113478;28;20222;-73
2022/03/14 10:04:35;;;;;;;3.63;1.10;;;22.40;99.90;;;;;;5114169;27;20571;-72
2022/03/14 10:07:06;;;;;;;4.25;0.88;;;22.50;99.90;;;;;;5113539;28;20615;-73
2022/03/14 10:09:37;;;;;;;3.70;1.20;;;22.50;99.90;;;;;;5113637;28;20255;-73
2022/03/14 10:12:12;;;;;;;4.53;1.10;;;22.40;99.90;;;;;;5116781;27;20269;-73
2022/03/14 10:14:43;;;;;;;3.58;1.10;;;22.40;99.90;;;;;;5119013;27;20207;-73
2022/03/14 10:17:14;;;;;;;3.45;1.20;;;22.40;99.90;;;;;;5114332;27;20272;-73
2022/03/14 10:19:54;;;;;;;3.50;0.85;;;22.30;99.90;;;;;;5133061;27;20243;-74
2022/03/14 10:22:26;;;;;;;5.45;0.88;;;22.30;99.90;;;;;;5121693;27;20560;-72
2022/03/14 10:25:09;;;;;;;5.28;1.30;;;22.30;99.90;;;;;;5120546;27;20296;-73
2022/03/14 10:27:42;;;;;;;3.20;1.17;;;22.30;99.90;;;;;;5115375;27;20222;-73
2022/03/14 10:30:27;;;;;;;4.82;1.00;;;22.30;99.90;;;;;;5124070;27;20198;-74
2022/03/14 10:33:04;;;;;;;4.40;1.30;;;22.30;99.90;;;;;;5133578;27;20229;-74
2022/03/14 10:35:39;;;;;;;4.10;0.88;;;22.30;99.90;;;;;;5121925;27;20194;-73
2022/03/14 10:38:19;;;;;;;5.22;1.15;;;22.30;99.90;;;;;;5128701;27;20606;-72
2022/03/14 10:40:53;;;;;;;3.75;1.05;;;22.30;99.90;;;;;;5147476;27;20264;-73
2022/03/14 10:46:16;;;;;;;2.30;0.82;;;22.30;99.90;;;;;;5138762;27;20178;-73
2022/03/14 10:48:47;;;;;;;4.35;1.10;;;22.30;99.90;;;;;;5118336;28;20247;-73
2022/03/14 10:51:18;;;;;;;5.15;1.00;;;22.40;99.90;;;;;;5120845;27;20187;-73
2022/03/14 10:53:49;;;;;;;4.53;1.20;;;22.30;99.90;;;;;;5131880;27;20202;-74
2022/03/14 10:56:28;;;;;;;4.40;1.02;;;22.30;99.90;;;;;;5138051;27;20741;-71
2022/03/14 10:59:10;;;;;;;4.85;0.88;;;22.30;99.90;;;;;;5136475;27;20244;-73
2022/03/14 11:02:01;;;;;;;4.75;1.10;;;22.30;99.90;;;;;;5135802;27;20219;-74
2022/03/14 11:04:43;;;;;;;4.60;1.35;;;22.30;99.90;;;;;;5117759;27;20198;-74
2022/03/14 11:07:15;;;;;;;3.35;1.10;;;22.30;99.90;;;;;;5117361;28;20203;-74
2022/03/14 11:09:47;;;;;;;3.40;0.85;;;22.30;99.90;;;;;;5118581;28;20293;-74
2022/03/14 11:12:22;;;;;;;5.68;1.30;;;22.30;99.90;;;;;;5131684;27;20202;-74
2022/03/14 11:15:01;;;;;;;3.65;1.05;;;22.40;99.90;;;;;;5140427;27;20207;-74
2022/03/14 11:17:35;;;;;;;4.38;1.10;;;22.30;99.90;;;;;;5138491;27;20193;-74
2022/03/14 11:20:06;;;;;;;5.97;1.17;;;22.30;99.90;;;;;;5138104;27;20601;-74
2022/03/14 11:22:38;;;;;;;4.70;0.90;;;22.30;99.90;;;;;;5121378;27;20308;-75
2022/03/14 11:25:10;;;;;;;3.55;0.93;;;22.30;99.90;;;;;;5137322;27;20209;-74
2022/03/14 11:27:43;;;;;;;5.85;1.13;;;22.20;99.90;;;;;;5137010;27;20229;-74
2022/03/14 11:30:18;;;;;;;3.88;1.08;;;22.30;99.90;;;;;;5118158;28;20203;-75
2022/03/14 11:32:49;;;;;;;4.40;1.02;;;22.30;99.90;;;;;;5123466;27;20656;-74
2022/03/14 11:35:20;;;;;;;4.18;0.90;;;22.30;99.90;;;;;;5131643;27;20190;-76
2022/03/14 11:37:52;;;;;;;3.70;1.00;;;22.30;99.90;;;;;;5117427;27;20277;-75
2022/03/14 11:40:22;;;;;;;7.47;1.27;;;22.40;99.90;;;;;;5116303;28;20252;-74
2022/03/14 11:42:53;;;;;;;3.13;0.75;;;22.40;99.90;;;;;;5116445;28;20220;-74
2022/03/14 11:45:26;;;;;;;4.00;0.90;;;22.40;99.90;;;;;;5134039;27;20198;-74
2022/03/14 11:48:00;;;;;;;4.38;0.82;;;22.40;99.90;;;;;;5138153;27;20198;-73
2022/03/14 11:50:30;;;;;;;3.60;0.70;;;22.40;99.90;;;;;;5136555;27;20201;-74
2022/03/14 11:53:06;;;;;;;3.65;0.80;;;22.40;99.90;;;;;;5136617;27;20215;-74
2022/03/14 11:55:51;;;;;;;4.85;0.93;;;22.40;99.90;;;;;;5136003;27;20246;-74
2022/03/14 11:58:42;;;;;;;3.85;0.80;;;22.30;99.90;;;;;;5135451;27;20201;-74
2022/03/14 12:01:23;;;;;;;3.42;0.88;;;22.30;99.90;;;;;;5114882;27;20229;-70
2022/03/14 12:03:56;;;;;;;5.60;0.80;;;22.30;99.90;;;;;;5117802;27;20220;-73
2022/03/14 12:07:03;;;;;;;5.25;1.00;;;22.30;99.90;;;;;;5121206;27;20250;-72
2022/03/14 12:09:54;;;;;;;4.13;0.80;;;22.30;99.90;;;;;;5136435;27;20198;-73
2022/03/14 12:12:35;;;;;;;5.97;1.23;;;22.30;99.90;;;;;;5130979;27;20625;-74
2022/03/14 12:15:09;;;;;;;5.32;0.90;;;22.30;99.90;;;;;;5118508;28;20243;-74
2022/03/14 12:17:48;;;;;;;4.35;1.20;;;22.30;99.90;;;;;;5114596;28;20205;-74
2022/03/14 12:20:25;;;;;;;6.25;1.23;;;22.30;99.90;;;;;;5128089;27;20632;-74
2022/03/14 12:22:57;;;;;;;4.22;0.80;;;22.30;99.90;;;;;;5133007;27;20728;-74
2022/03/14 12:25:46;;;;;;;4.63;0.90;;;22.30;99.90;;;;;;5115485;28;20214;-74
2022/03/14 12:28:32;;;;;;;4.07;1.00;;;22.30;99.90;;;;;;5116360;28;20224;-74
2022/03/14 12:31:19;;;;;;;2.97;0.70;;;22.30;99.90;;;;;;5133183;27;20224;-74
2022/03/14 12:33:53;;;;;;;4.10;0.82;;;22.30;99.90;;;;;;5131623;27;20190;-74
2022/03/14 12:36:44;;;;;;;2.63;0.80;;;22.30;99.90;;;;;;5127513;27;20194;-74
2022/03/14 12:39:27;;;;;;;5.95;1.35;;;22.30;99.90;;;;;;5110797;28;20197;-74
2022/03/14 12:42:21;;;;;;;5.07;0.90;;;22.30;99.90;;;;;;5128378;27;20225;-74
2022/03/14 12:45:26;;;;;;;3.58;0.90;;;22.30;99.90;;;;;;5129611;28;20574;-73
2022/03/14 12:47:58;;;;;;;5.10;0.90;;;22.30;99.90;;;;;;5128320;28;20280;-73
2022/03/14 12:50:53;;;;;;;2.65;0.75;;;22.30;99.90;;;;;;5116653;28;20198;-73
2022/03/14 12:53:42;;;;;;;4.13;0.85;;;22.30;99.90;;;;;;5123904;28;20297;-74
2022/03/14 12:56:18;;;;;;;4.05;1.00;;;22.40;99.90;;;;;;5113887;28;20190;-73
2022/03/14 12:59:00;;;;;;;3.35;0.90;;;22.30;99.90;;;;;;5110962;28;20190;-73
2022/03/14 13:01:32;;;;;;;3.95;0.90;;;22.40;99.90;;;;;;5112709;28;20581;-73
2022/03/14 13:04:05;;;;;;;5.20;0.80;;;22.30;99.90;;;;;;5117885;28;20195;-73
2022/03/14 13:06:41;;;;;;;4.03;0.80;;;22.30;99.90;;;;;;5112486;28;20202;-73
2022/03/14 13:09:12;;;;;;;2.72;0.70;;;22.30;99.90;;;;;;5125731;28;20206;-73
2022/03/14 13:11:43;;;;;;;5.45;1.08;;;22.30;99.90;;;;;;5114266;28;20202;-73
2022/03/14 13:14:17;;;;;;;4.10;1.02;;;22.30;99.90;;;;;;5126905;28;20652;-73
2022/03/14 13:16:54;;;;;;;5.63;1.00;;;22.30;99.90;;;;;;5129327;28;21332;-73